JBU2587 KJFK-KDCA
Flight info
| Callsign | JBU2587 |
|---|---|
| Flight time | 0h 46m |
| Altitude | 22000 |
| Route | RBV Q430 COPES Q75 MXE CLIPR3 |
| Aircraft | A320/M-SDE3FGHIRWY/LB1 |
Departure
| Time | 2026-04-30 20:55 |
|---|---|
| Airport | John F. Kennedy International Airport (KJFK) |
Arrival
| Time | 2026-04-30 21:41 |
|---|---|
| Airport | Ronald Reagan Washington National Airport (KDCA) |
| Time | Latitude | Longitude | Altitude | Speed | Heading |
|---|---|---|---|---|---|
| 2026-04-30 20:21 | 40.64536 | -73.77383 | 24 ft | 0 kts | 355° |
| 2026-04-30 20:37 | 40.64524 | -73.77382 | 23 ft | 2 kts | 356° |
| 2026-04-30 20:37 | 40.64511 | -73.77381 | 24 ft | 2 kts | 356° |
| 2026-04-30 20:37 | 40.64495 | -73.77380 | 23 ft | 2 kts | 1° |
| 2026-04-30 20:37 | 40.64478 | -73.77382 | 23 ft | 2 kts | 38° |
| 2026-04-30 20:38 | 40.64472 | -73.77395 | 22 ft | 0 kts | 90° |
| 2026-04-30 20:38 | 40.64472 | -73.77389 | 22 ft | 0 kts | 90° |
| 2026-04-30 20:41 | 40.64472 | -73.77383 | 21 ft | 1 kts | 89° |
| 2026-04-30 20:41 | 40.64472 | -73.77381 | 21 ft | 1 kts | 89° |
| 2026-04-30 20:41 | 40.64472 | -73.77360 | 21 ft | 4 kts | 89° |
| 2026-04-30 20:42 | 40.64472 | -73.77354 | 21 ft | 0 kts | 89° |
| 2026-04-30 20:44 | 40.64472 | -73.77351 | 21 ft | 2 kts | 89° |
| 2026-04-30 20:44 | 40.64473 | -73.77269 | 21 ft | 13 kts | 89° |
| 2026-04-30 20:44 | 40.64434 | -73.77109 | 20 ft | 10 kts | 106° |
| 2026-04-30 20:45 | 40.64523 | -73.76983 | 20 ft | 15 kts | 16° |
| 2026-04-30 20:45 | 40.64617 | -73.76906 | 20 ft | 17 kts | 30° |
| 2026-04-30 20:45 | 40.64722 | -73.76825 | 20 ft | 18 kts | 32° |
| 2026-04-30 20:46 | 40.65090 | -73.76528 | 22 ft | 19 kts | 44° |
| 2026-04-30 20:46 | 40.65095 | -73.76463 | 22 ft | 2 kts | 117° |
| 2026-04-30 20:47 | 40.65094 | -73.76462 | 22 ft | 0 kts | 117° |
| 2026-04-30 20:48 | 40.65094 | -73.76461 | 22 ft | 0 kts | 117° |
| 2026-04-30 20:48 | 40.65070 | -73.76405 | 23 ft | 13 kts | 122° |
| 2026-04-30 20:49 | 40.64991 | -73.76381 | 23 ft | 12 kts | 210° |
| 2026-04-30 20:49 | 40.64980 | -73.76390 | 23 ft | 0 kts | 210° |
| 2026-04-30 20:54 | 40.64922 | -73.76435 | 23 ft | 36 kts | 210° |
| 2026-04-30 20:54 | 40.64482 | -73.76780 | 20 ft | 107 kts | 210° |
| 2026-04-30 20:54 | 40.63687 | -73.77407 | 54 ft | 154 kts | 210° |
| 2026-04-30 20:55 | 40.61768 | -73.78912 | 930 ft | 188 kts | 210° |
| 2026-04-30 20:55 | 40.60551 | -73.79794 | 1380 ft | 210 kts | 211° |
| 2026-04-30 20:55 | 40.59229 | -73.80841 | 1884 ft | 233 kts | 213° |
| 2026-04-30 20:56 | 40.56298 | -73.83282 | 3467 ft | 259 kts | 214° |
| 2026-04-30 20:56 | 40.54764 | -73.84543 | 4535 ft | 261 kts | 214° |
| 2026-04-30 20:56 | 40.52169 | -73.87793 | 6555 ft | 261 kts | 238° |
| 2026-04-30 20:57 | 40.51131 | -73.89803 | 7545 ft | 263 kts | 238° |
| 2026-04-30 20:57 | 40.50106 | -73.91813 | 8506 ft | 266 kts | 238° |
| 2026-04-30 20:57 | 40.49071 | -73.93846 | 9463 ft | 269 kts | 238° |
| 2026-04-30 20:58 | 40.46921 | -73.98064 | 10586 ft | 299 kts | 238° |
| 2026-04-30 20:58 | 40.45770 | -74.00309 | 11112 ft | 310 kts | 238° |
| 2026-04-30 20:58 | 40.44561 | -74.02658 | 11865 ft | 315 kts | 237° |
| 2026-04-30 20:58 | 40.43319 | -74.05058 | 12679 ft | 317 kts | 237° |
| 2026-04-30 20:59 | 40.40826 | -74.09876 | 14279 ft | 321 kts | 238° |
| 2026-04-30 20:59 | 40.39574 | -74.12304 | 15034 ft | 322 kts | 238° |
| 2026-04-30 21:00 | 40.37057 | -74.17175 | 16519 ft | 324 kts | 237° |
| 2026-04-30 21:00 | 40.34523 | -74.22084 | 18043 ft | 326 kts | 237° |
| 2026-04-30 21:01 | 40.31957 | -74.27029 | 19372 ft | 330 kts | 237° |
| 2026-04-30 21:01 | 40.30661 | -74.29520 | 20028 ft | 333 kts | 237° |
| 2026-04-30 21:01 | 40.28025 | -74.34578 | 21294 ft | 338 kts | 237° |
| 2026-04-30 21:02 | 40.26697 | -74.37130 | 21731 ft | 340 kts | 237° |
| 2026-04-30 21:02 | 40.25367 | -74.39684 | 21829 ft | 338 kts | 237° |
| 2026-04-30 21:02 | 40.24036 | -74.42228 | 21843 ft | 337 kts | 237° |
| 2026-04-30 21:02 | 40.22733 | -74.44715 | 21842 ft | 336 kts | 237° |
| 2026-04-30 21:03 | 40.21433 | -74.47254 | 21842 ft | 335 kts | 241° |
| 2026-04-30 21:03 | 40.20468 | -74.50016 | 21839 ft | 334 kts | 251° |
| 2026-04-30 21:03 | 40.19963 | -74.52999 | 21840 ft | 336 kts | 261° |
| 2026-04-30 21:03 | 40.19729 | -74.56042 | 21840 ft | 337 kts | 262° |
| 2026-04-30 21:04 | 40.19494 | -74.59095 | 21839 ft | 337 kts | 262° |
| 2026-04-30 21:04 | 40.19256 | -74.62146 | 21840 ft | 337 kts | 262° |
| 2026-04-30 21:04 | 40.18776 | -74.68240 | 21841 ft | 337 kts | 262° |
| 2026-04-30 21:05 | 40.18536 | -74.71292 | 21844 ft | 337 kts | 262° |
| 2026-04-30 21:05 | 40.18296 | -74.74342 | 21845 ft | 337 kts | 262° |
| 2026-04-30 21:05 | 40.18055 | -74.77391 | 21847 ft | 337 kts | 262° |
| 2026-04-30 21:05 | 40.17811 | -74.80437 | 21849 ft | 337 kts | 262° |
| 2026-04-30 21:06 | 40.17564 | -74.83488 | 21852 ft | 337 kts | 262° |
| 2026-04-30 21:06 | 40.17314 | -74.86538 | 21853 ft | 337 kts | 262° |
| 2026-04-30 21:06 | 40.17065 | -74.89585 | 21854 ft | 337 kts | 262° |
| 2026-04-30 21:06 | 40.16815 | -74.92642 | 21853 ft | 337 kts | 262° |
| 2026-04-30 21:07 | 40.16567 | -74.95688 | 21851 ft | 337 kts | 262° |
| 2026-04-30 21:07 | 40.16319 | -74.98738 | 21853 ft | 337 kts | 262° |
| 2026-04-30 21:07 | 40.16070 | -75.01789 | 21872 ft | 337 kts | 262° |
| 2026-04-30 21:07 | 40.15824 | -75.04799 | 21873 ft | 337 kts | 262° |
| 2026-04-30 21:08 | 40.15572 | -75.07894 | 21877 ft | 337 kts | 262° |
| 2026-04-30 21:08 | 40.15327 | -75.10899 | 21877 ft | 337 kts | 262° |
| 2026-04-30 21:08 | 40.15075 | -75.13952 | 21878 ft | 337 kts | 262° |
| 2026-04-30 21:08 | 40.14820 | -75.16999 | 21878 ft | 337 kts | 262° |
| 2026-04-30 21:09 | 40.14561 | -75.20047 | 21877 ft | 337 kts | 262° |
| 2026-04-30 21:09 | 40.14304 | -75.23090 | 21876 ft | 337 kts | 262° |
| 2026-04-30 21:09 | 40.14048 | -75.26128 | 21877 ft | 337 kts | 262° |
| 2026-04-30 21:09 | 40.13791 | -75.29175 | 21878 ft | 337 kts | 262° |
| 2026-04-30 21:10 | 40.13530 | -75.32221 | 21878 ft | 337 kts | 262° |
| 2026-04-30 21:10 | 40.13148 | -75.35237 | 21879 ft | 336 kts | 253° |
| 2026-04-30 21:10 | 40.12291 | -75.38073 | 21879 ft | 336 kts | 243° |
| 2026-04-30 21:10 | 40.10973 | -75.40590 | 21878 ft | 338 kts | 231° |
| 2026-04-30 21:11 | 40.09907 | -75.42091 | 21880 ft | 339 kts | 230° |
| 2026-04-30 21:11 | 40.08292 | -75.44324 | 21899 ft | 339 kts | 230° |
| 2026-04-30 21:11 | 40.06668 | -75.46562 | 21902 ft | 339 kts | 230° |
| 2026-04-30 21:11 | 40.05048 | -75.48801 | 21900 ft | 338 kts | 230° |
| 2026-04-30 21:12 | 40.03435 | -75.51036 | 21896 ft | 338 kts | 230° |
| 2026-04-30 21:12 | 40.01821 | -75.53268 | 21893 ft | 338 kts | 230° |
| 2026-04-30 21:12 | 40.00205 | -75.55497 | 21880 ft | 338 kts | 230° |
| 2026-04-30 21:12 | 39.98586 | -75.57726 | 21854 ft | 338 kts | 230° |
| 2026-04-30 21:13 | 39.96967 | -75.59957 | 21856 ft | 339 kts | 230° |
| 2026-04-30 21:13 | 39.95342 | -75.62191 | 21859 ft | 339 kts | 230° |
| 2026-04-30 21:13 | 39.93717 | -75.64428 | 21862 ft | 339 kts | 230° |
| 2026-04-30 21:13 | 39.92109 | -75.66670 | 21863 ft | 338 kts | 233° |
| 2026-04-30 21:14 | 39.90720 | -75.69151 | 21865 ft | 336 kts | 238° |
| 2026-04-30 21:14 | 39.89413 | -75.71678 | 21867 ft | 336 kts | 238° |
| 2026-04-30 21:14 | 39.88100 | -75.74204 | 21861 ft | 337 kts | 238° |
| 2026-04-30 21:14 | 39.86799 | -75.76696 | 21863 ft | 337 kts | 238° |
| 2026-04-30 21:15 | 39.85482 | -75.79220 | 21887 ft | 337 kts | 238° |
| 2026-04-30 21:15 | 39.84162 | -75.81747 | 21886 ft | 337 kts | 238° |
| 2026-04-30 21:15 | 39.82845 | -75.84275 | 21886 ft | 337 kts | 238° |
| 2026-04-30 21:15 | 39.81531 | -75.86793 | 21883 ft | 336 kts | 238° |
| 2026-04-30 21:16 | 39.80215 | -75.89306 | 21884 ft | 336 kts | 238° |
| 2026-04-30 21:16 | 39.78898 | -75.91822 | 21881 ft | 336 kts | 238° |
| 2026-04-30 21:16 | 39.77584 | -75.94334 | 21879 ft | 336 kts | 238° |
| 2026-04-30 21:16 | 39.76270 | -75.96845 | 21876 ft | 336 kts | 238° |
| 2026-04-30 21:17 | 39.74953 | -75.99352 | 21819 ft | 334 kts | 238° |
| 2026-04-30 21:17 | 39.73643 | -76.01845 | 21254 ft | 333 kts | 238° |
| 2026-04-30 21:17 | 39.72337 | -76.04324 | 20758 ft | 330 kts | 238° |
| 2026-04-30 21:17 | 39.71043 | -76.06777 | 20258 ft | 328 kts | 238° |
| 2026-04-30 21:18 | 39.69763 | -76.09213 | 19771 ft | 325 kts | 238° |
| 2026-04-30 21:18 | 39.68493 | -76.11633 | 19281 ft | 323 kts | 238° |
| 2026-04-30 21:18 | 39.67234 | -76.14028 | 18793 ft | 320 kts | 238° |
| 2026-04-30 21:18 | 39.65979 | -76.16409 | 18315 ft | 318 kts | 238° |
| 2026-04-30 21:19 | 39.64735 | -76.18767 | 17787 ft | 315 kts | 238° |
| 2026-04-30 21:19 | 39.63519 | -76.21069 | 17299 ft | 311 kts | 238° |
| 2026-04-30 21:19 | 39.62304 | -76.23369 | 16833 ft | 307 kts | 238° |
| 2026-04-30 21:19 | 39.61101 | -76.25641 | 16369 ft | 304 kts | 238° |
| 2026-04-30 21:20 | 39.59909 | -76.27891 | 15910 ft | 301 kts | 238° |
| 2026-04-30 21:20 | 39.58589 | -76.30000 | 15452 ft | 302 kts | 228° |
| 2026-04-30 21:20 | 39.56916 | -76.31679 | 14985 ft | 305 kts | 218° |
| 2026-04-30 21:20 | 39.55164 | -76.33192 | 14651 ft | 300 kts | 219° |
| 2026-04-30 21:21 | 39.53428 | -76.34693 | 14199 ft | 300 kts | 219° |
| 2026-04-30 21:21 | 39.51692 | -76.36203 | 13748 ft | 300 kts | 219° |
| 2026-04-30 21:21 | 39.48236 | -76.39215 | 12825 ft | 298 kts | 218° |
| 2026-04-30 21:22 | 39.46516 | -76.40710 | 12392 ft | 296 kts | 218° |
| 2026-04-30 21:22 | 39.41418 | -76.45138 | 11722 ft | 299 kts | 218° |
| 2026-04-30 21:23 | 39.39688 | -76.46641 | 11611 ft | 300 kts | 217° |
| 2026-04-30 21:23 | 39.37955 | -76.48143 | 11488 ft | 299 kts | 217° |
| 2026-04-30 21:23 | 39.34492 | -76.51135 | 11261 ft | 298 kts | 218° |
| 2026-04-30 21:24 | 39.32770 | -76.52626 | 11136 ft | 297 kts | 217° |
| 2026-04-30 21:24 | 39.31049 | -76.54112 | 11010 ft | 297 kts | 217° |
| 2026-04-30 21:24 | 39.29329 | -76.55597 | 10885 ft | 297 kts | 217° |
| 2026-04-30 21:24 | 39.27635 | -76.57058 | 10752 ft | 297 kts | 217° |
| 2026-04-30 21:25 | 39.24206 | -76.60016 | 10494 ft | 296 kts | 217° |
| 2026-04-30 21:25 | 39.22490 | -76.61491 | 10377 ft | 296 kts | 217° |
| 2026-04-30 21:25 | 39.20779 | -76.62960 | 10253 ft | 295 kts | 217° |
| 2026-04-30 21:26 | 39.17564 | -76.65725 | 9922 ft | 277 kts | 218° |
| 2026-04-30 21:26 | 39.16112 | -76.67297 | 9863 ft | 272 kts | 226° |
| 2026-04-30 21:27 | 39.13322 | -76.70626 | 9628 ft | 273 kts | 225° |
| 2026-04-30 21:27 | 39.11925 | -76.72281 | 9544 ft | 273 kts | 225° |
| 2026-04-30 21:27 | 39.10532 | -76.73932 | 9411 ft | 272 kts | 226° |
| 2026-04-30 21:28 | 39.07768 | -76.77202 | 9153 ft | 271 kts | 226° |
| 2026-04-30 21:28 | 39.06379 | -76.78846 | 9014 ft | 270 kts | 225° |
| 2026-04-30 21:28 | 39.03609 | -76.82116 | 8760 ft | 270 kts | 226° |
| 2026-04-30 21:29 | 39.02224 | -76.83748 | 8638 ft | 270 kts | 226° |
| 2026-04-30 21:29 | 38.98079 | -76.88629 | 8241 ft | 268 kts | 226° |
| 2026-04-30 21:30 | 38.95269 | -76.91791 | 7978 ft | 268 kts | 223° |
| 2026-04-30 21:31 | 38.89980 | -76.94105 | 7574 ft | 280 kts | 185° |
| 2026-04-30 21:31 | 38.86117 | -76.94200 | 6341 ft | 277 kts | 185° |
| 2026-04-30 21:32 | 38.82491 | -76.94321 | 5110 ft | 276 kts | 185° |
| 2026-04-30 21:32 | 38.80570 | -76.94381 | 4521 ft | 274 kts | 185° |
| 2026-04-30 21:32 | 38.78707 | -76.94440 | 3924 ft | 273 kts | 185° |
| 2026-04-30 21:32 | 38.76810 | -76.94359 | 3315 ft | 272 kts | 179° |
| 2026-04-30 21:33 | 38.74925 | -76.94174 | 2714 ft | 270 kts | 179° |
| 2026-04-30 21:33 | 38.71196 | -76.93811 | 2510 ft | 272 kts | 179° |
| 2026-04-30 21:33 | 38.69361 | -76.93628 | 2498 ft | 251 kts | 179° |
| 2026-04-30 21:34 | 38.67710 | -76.93461 | 2502 ft | 225 kts | 179° |
| 2026-04-30 21:34 | 38.64686 | -76.93198 | 2506 ft | 214 kts | 185° |
| 2026-04-30 21:34 | 38.63314 | -76.93677 | 2499 ft | 200 kts | 223° |
| 2026-04-30 21:35 | 38.62508 | -76.95028 | 2518 ft | 189 kts | 255° |
| 2026-04-30 21:35 | 38.62270 | -76.96666 | 2513 ft | 188 kts | 272° |
| 2026-04-30 21:35 | 38.62453 | -76.98304 | 2509 ft | 186 kts | 290° |
| 2026-04-30 21:35 | 38.63026 | -76.99762 | 2506 ft | 179 kts | 307° |
| 2026-04-30 21:36 | 38.63891 | -77.00873 | 2509 ft | 175 kts | 323° |
| 2026-04-30 21:36 | 38.64978 | -77.01597 | 2508 ft | 178 kts | 338° |
| 2026-04-30 21:37 | 38.68718 | -77.02123 | 2483 ft | 181 kts | 351° |
| 2026-04-30 21:37 | 38.69953 | -77.02246 | 2484 ft | 179 kts | 351° |
| 2026-04-30 21:37 | 38.71198 | -77.02371 | 2446 ft | 180 kts | 350° |
| 2026-04-30 21:37 | 38.72449 | -77.02497 | 2281 ft | 179 kts | 350° |
| 2026-04-30 21:38 | 38.73688 | -77.02621 | 2083 ft | 178 kts | 351° |
| 2026-04-30 21:38 | 38.74926 | -77.02745 | 1850 ft | 178 kts | 351° |
| 2026-04-30 21:38 | 38.76137 | -77.02865 | 1648 ft | 168 kts | 350° |
| 2026-04-30 21:38 | 38.77269 | -77.02977 | 1404 ft | 157 kts | 351° |
| 2026-04-30 21:39 | 38.78313 | -77.03083 | 1180 ft | 147 kts | 352° |
| 2026-04-30 21:39 | 38.79296 | -77.03182 | 981 ft | 136 kts | 350° |
| 2026-04-30 21:39 | 38.80226 | -77.03277 | 823 ft | 134 kts | 348° |
| 2026-04-30 21:39 | 38.81141 | -77.03369 | 663 ft | 129 kts | 350° |
| 2026-04-30 21:40 | 38.82034 | -77.03460 | 487 ft | 130 kts | 347° |
| 2026-04-30 21:40 | 38.82934 | -77.03546 | 299 ft | 127 kts | 349° |
| 2026-04-30 21:40 | 38.83836 | -77.03637 | 119 ft | 131 kts | 346° |
| 2026-04-30 21:40 | 38.84706 | -77.03735 | 28 ft | 111 kts | 351° |
| 2026-04-30 21:41 | 38.85305 | -77.03793 | 22 ft | 61 kts | 357° |
| 2026-04-30 21:41 | 38.85511 | -77.03894 | 27 ft | 20 kts | 269° |
| 2026-04-30 21:41 | 38.85496 | -77.03931 | 27 ft | 0 kts | 221° |
| 2026-04-30 21:42 | 38.85496 | -77.03932 | 27 ft | 0 kts | 222° |
| 2026-04-30 21:42 | 38.85481 | -77.03942 | 26 ft | 9 kts | 201° |
| 2026-04-30 21:42 | 38.85374 | -77.03939 | 23 ft | 15 kts | 167° |
| 2026-04-30 21:42 | 38.85287 | -77.03929 | 22 ft | 3 kts | 176° |
| 2026-04-30 21:43 | 38.85255 | -77.03926 | 21 ft | 6 kts | 176° |
| 2026-04-30 21:43 | 38.85222 | -77.03924 | 22 ft | 8 kts | 176° |
| 2026-04-30 21:43 | 38.85160 | -77.03959 | 22 ft | 10 kts | 262° |
| 2026-04-30 21:43 | 38.85176 | -77.04028 | 23 ft | 5 kts | 295° |
| 2026-04-30 21:44 | 38.85181 | -77.04045 | 22 ft | 0 kts | 294° |